createdAt,value
2022-12-14T00:00:44.471Z,96900.75
2022-12-14T00:03:11.521Z,96905.03
2022-12-14T00:05:38.318Z,96900.94
2022-12-14T00:08:05.300Z,96895.88
2022-12-14T00:10:32.627Z,96890.72
2022-12-14T00:12:59.318Z,96889.72
2022-12-14T00:15:25.806Z,96888.94
2022-12-14T00:17:52.305Z,96884.91
2022-12-14T00:20:18.989Z,96870.03
2022-12-14T00:22:45.497Z,96871.72
2022-12-14T00:25:12.110Z,96882.06
2022-12-14T00:27:45.653Z,96870.19
2022-12-14T00:30:13.341Z,96873.09
2022-12-14T00:32:40.984Z,96877.78
2022-12-14T00:35:11.638Z,96873.34
2022-12-14T00:37:38.634Z,96861.31
2022-12-14T00:40:06.355Z,96853.44
2022-12-14T00:42:32.813Z,96854.88
2022-12-14T00:44:59.405Z,96844.88
2022-12-14T00:47:26.049Z,96851.44
2022-12-14T00:49:53.153Z,96846.75
2022-12-14T00:52:19.949Z,96845.28
2022-12-14T00:54:46.589Z,96845.69
2022-12-14T00:57:13.078Z,96846.41
2022-12-14T00:59:39.514Z,96852.28
2022-12-14T01:02:07.076Z,96847.91
2022-12-14T01:04:33.649Z,96848.09
2022-12-14T01:07:00.146Z,96841.72
2022-12-14T01:09:26.990Z,96851.53
2022-12-14T01:11:53.517Z,96841.34
2022-12-14T01:14:20.570Z,96837.56
2022-12-14T01:16:47.222Z,96843.84
2022-12-14T01:19:14.255Z,96842.59
2022-12-14T01:21:40.736Z,96837.78
2022-12-14T01:24:08.761Z,96841.66
2022-12-14T01:26:38.880Z,96836.16
2022-12-14T01:29:06.473Z,96831.75
2022-12-14T01:31:34.622Z,96823.78
2022-12-14T01:34:01.444Z,96826.56
2022-12-14T01:36:29.129Z,96833.91
2022-12-14T01:38:56.800Z,96821.50
2022-12-14T01:41:37.537Z,96826.88
2022-12-14T01:44:10.173Z,96817.00
2022-12-14T01:46:36.660Z,96817.00
2022-12-14T01:49:12.779Z,96816.66
2022-12-14T01:51:40.199Z,96826.28
2022-12-14T01:54:09.170Z,96824.53
2022-12-14T01:56:38.989Z,96809.94
2022-12-14T01:59:08.493Z,96810.13
2022-12-14T02:01:35.274Z,96817.56
2022-12-14T02:04:02.090Z,96827.91
2022-12-14T02:06:30.572Z,96818.19
2022-12-14T02:08:57.260Z,96825.38
2022-12-14T02:11:31.400Z,96825.78
2022-12-14T02:13:57.833Z,96819.75
2022-12-14T02:16:24.423Z,96814.72
2022-12-14T02:18:50.885Z,96810.34
2022-12-14T02:21:21.305Z,96803.94
2022-12-14T02:23:59.913Z,96795.44
2022-12-14T02:26:52.353Z,96795.53
2022-12-14T02:29:24.791Z,96786.84
2022-12-14T02:31:54.248Z,96792.81
2022-12-14T02:34:46.415Z,96793.88
2022-12-14T02:37:15.950Z,96791.91
2022-12-14T02:39:42.484Z,96785.75
2022-12-14T02:42:13.501Z,96787.41
2022-12-14T02:44:45.256Z,96787.41
2022-12-14T02:47:26.500Z,96785.09
2022-12-14T02:50:11.092Z,96786.41
2022-12-14T02:52:53.591Z,96791.56
2022-12-14T02:55:29.374Z,96782.25
2022-12-14T02:57:55.786Z,96783.28
2022-12-14T03:00:23.585Z,96776.63
2022-12-14T03:02:50.388Z,96761.72
2022-12-14T03:05:16.945Z,96765.78
2022-12-14T03:07:48.725Z,96753.94
2022-12-14T03:10:23.452Z,96759.53
2022-12-14T03:12:54.179Z,96755.94
2022-12-14T03:15:22.632Z,96746.31
2022-12-14T03:17:51.485Z,96742.22
2022-12-14T03:20:21.508Z,96749.78
2022-12-14T03:22:57.132Z,96754.28
2022-12-14T03:25:29.591Z,96747.03
2022-12-14T03:28:04.304Z,96734.47
2022-12-14T03:30:58.836Z,96743.78
2022-12-14T03:33:21.724Z,96743.22
2022-12-14T03:35:57.569Z,96737.75
2022-12-14T03:38:24.194Z,96736.53
2022-12-14T03:41:03.934Z,96730.00
2022-12-14T03:43:50.640Z,96721.31
2022-12-14T03:46:26.477Z,96741.78
2022-12-14T03:48:56.285Z,96737.41
2022-12-14T03:51:35.411Z,96734.06
2022-12-14T03:54:10.465Z,96742.13
2022-12-14T03:56:52.601Z,96727.00
2022-12-14T03:59:27.333Z,96727.19
2022-12-14T04:01:57.040Z,96725.53
2022-12-14T04:04:35.880Z,96712.44
2022-12-14T04:07:05.436Z,96725.72
2022-12-14T04:09:41.584Z,96731.19
2022-12-14T04:12:30.233Z,96747.47
2022-12-14T04:15:19.982Z,96751.50
2022-12-14T04:18:06.241Z,96736.44
2022-12-14T04:20:42.435Z,96741.56
2022-12-14T04:23:14.826Z,96735.22
2022-12-14T04:26:05.030Z,96732.22
2022-12-14T04:28:56.798Z,96731.34
2022-12-14T04:31:25.210Z,96730.75
2022-12-14T04:33:54.836Z,96731.16
2022-12-14T04:36:40.502Z,96723.38
2022-12-14T04:39:08.780Z,96722.06
2022-12-14T04:41:37.419Z,96711.47
2022-12-14T04:44:06.526Z,96702.88
2022-12-14T04:46:40.303Z,96691.06
2022-12-14T04:49:13.272Z,96681.97
2022-12-14T04:51:49.672Z,96691.34
2022-12-14T04:54:16.081Z,96686.28
2022-12-14T04:57:04.502Z,96684.91
2022-12-14T04:59:32.146Z,96677.63
2022-12-14T05:02:01.765Z,96688.97
2022-12-14T05:04:28.346Z,96675.13
2022-12-14T05:06:57.637Z,96678.19
2022-12-14T05:09:41.177Z,96679.47
2022-12-14T05:12:12.477Z,96681.06
2022-12-14T05:14:50.891Z,96675.78
2022-12-14T05:17:18.063Z,96684.72
2022-12-14T05:19:48.758Z,96691.34
2022-12-14T05:22:16.176Z,96683.22
2022-12-14T05:24:42.640Z,96677.72
2022-12-14T05:27:09.060Z,96664.03
2022-12-14T05:29:35.523Z,96667.44
2022-12-14T05:32:02.341Z,96664.50
2022-12-14T05:34:28.821Z,96660.44
2022-12-14T05:36:55.266Z,96658.34
2022-12-14T05:39:21.686Z,96655.59
2022-12-14T05:41:48.184Z,96658.56
2022-12-14T05:44:14.873Z,96658.53
2022-12-14T05:46:41.423Z,96666.59
2022-12-14T05:49:07.957Z,96661.50
2022-12-14T05:51:34.505Z,96646.31
2022-12-14T05:54:01.016Z,96649.25
2022-12-14T05:56:27.489Z,96662.34
2022-12-14T05:58:54.411Z,96660.47
2022-12-14T06:01:20.961Z,96647.97
2022-12-14T06:03:47.593Z,96639.44
2022-12-14T06:06:14.551Z,96631.41
2022-12-14T06:08:42.557Z,96614.72
2022-12-14T06:11:11.063Z,96605.84
2022-12-14T06:13:38.197Z,96602.22
2022-12-14T06:16:08.858Z,96602.53
2022-12-14T06:18:35.449Z,96608.56
2022-12-14T06:21:02.145Z,96616.91
2022-12-14T06:23:28.952Z,96631.78
2022-12-14T06:25:56.345Z,96646.88
2022-12-14T06:28:23.353Z,96656.88
2022-12-14T06:30:50.085Z,96651.59
2022-12-14T06:33:16.534Z,96658.25
2022-12-14T06:35:46.962Z,96660.47
2022-12-14T06:38:14.143Z,96662.38
2022-12-14T06:40:41.095Z,96672.72
2022-12-14T06:43:07.606Z,96674.19
2022-12-14T06:45:34.100Z,96673.34
2022-12-14T06:48:00.557Z,96658.97
2022-12-14T06:50:27.711Z,96663.88
2022-12-14T06:52:57.135Z,96662.44
2022-12-14T06:55:24.707Z,96644.94
2022-12-14T06:57:51.839Z,96643.78
2022-12-14T07:00:18.887Z,96632.88
2022-12-14T07:02:45.776Z,96632.97
2022-12-14T07:05:12.744Z,96633.41
2022-12-14T07:07:39.237Z,96638.91
2022-12-14T07:10:06.329Z,96644.19
2022-12-14T07:12:32.785Z,96638.91
2022-12-14T07:14:59.211Z,96653.81
2022-12-14T07:17:25.650Z,96648.22
2022-12-14T07:19:53.229Z,96647.78
2022-12-14T07:22:19.913Z,96646.75
2022-12-14T07:24:46.364Z,96649.69
2022-12-14T07:27:12.836Z,96646.50
2022-12-14T07:29:39.326Z,96636.78
2022-12-14T07:32:05.748Z,96645.91
2022-12-14T07:34:32.255Z,96650.94
2022-12-14T07:36:58.694Z,96650.50
2022-12-14T07:39:25.212Z,96642.72
2022-12-14T07:41:52.135Z,96649.25
2022-12-14T07:44:21.534Z,96652.16
2022-12-14T07:46:48.058Z,96642.25
2022-12-14T07:49:14.485Z,96646.50
2022-12-14T07:51:45.730Z,96650.50
2022-12-14T07:54:12.952Z,96659.38
2022-12-14T07:56:40.436Z,96650.09
2022-12-14T07:59:08.396Z,96652.66
2022-12-14T08:01:36.242Z,96643.50
2022-12-14T08:04:07.923Z,96642.09
2022-12-14T08:06:34.534Z,96646.84
2022-12-14T08:09:01.453Z,96653.31
2022-12-14T08:11:28.062Z,96654.09
2022-12-14T08:13:58.507Z,96658.16
2022-12-14T08:16:25.288Z,96657.06
2022-12-14T08:18:55.777Z,96654.19
2022-12-14T08:21:23.079Z,96644.13
2022-12-14T08:23:50.060Z,96641.78
2022-12-14T08:26:16.806Z,96635.13
2022-12-14T08:28:43.336Z,96632.16
2022-12-14T08:31:11.798Z,96636.25
2022-12-14T08:33:39.077Z,96631.81
2022-12-14T08:36:09.634Z,96638.34
2022-12-14T08:38:36.460Z,96634.38
2022-12-14T08:41:07.065Z,96646.53
2022-12-14T08:43:33.913Z,96642.66
2022-12-14T08:46:00.537Z,96637.56
2022-12-14T08:48:27.213Z,96647.56
2022-12-14T08:50:53.846Z,96637.72
2022-12-14T08:53:21.069Z,96634.03
2022-12-14T08:55:47.558Z,96624.19
2022-12-14T08:58:14.027Z,96633.22
2022-12-14T09:00:40.638Z,96626.69
2022-12-14T09:03:07.304Z,96623.91
2022-12-14T09:05:36.612Z,96637.25
2022-12-14T09:08:03.081Z,96647.16
2022-12-14T09:10:29.521Z,96643.41
2022-12-14T09:12:56.278Z,96634.50
2022-12-14T09:15:22.734Z,96648.31
2022-12-14T09:17:49.773Z,96641.56
2022-12-14T09:20:16.495Z,96635.47
2022-12-14T09:22:42.982Z,96642.44
2022-12-14T09:25:09.573Z,96647.69
2022-12-14T09:27:36.364Z,96634.72
2022-12-14T09:30:03.237Z,96634.84
2022-12-14T09:32:29.742Z,96640.81
2022-12-14T09:34:56.228Z,96628.75
2022-12-14T09:37:22.742Z,96621.06
2022-12-14T09:39:49.194Z,96614.13
2022-12-14T09:42:15.600Z,96624.69
2022-12-14T09:44:47.880Z,96617.50
2022-12-14T09:47:27.760Z,96606.50
2022-12-14T09:49:58.370Z,96601.66
2022-12-14T09:52:33.682Z,96598.53
2022-12-14T09:55:01.661Z,96594.66
2022-12-14T09:57:37.703Z,96589.31
2022-12-14T10:00:05.489Z,96596.00
2022-12-14T10:02:43.061Z,96585.16
2022-12-14T10:05:11.065Z,96586.69
2022-12-14T10:07:44.333Z,96578.22
2022-12-14T10:10:32.904Z,96577.94
2022-12-14T10:13:04.305Z,96571.41
2022-12-14T10:15:42.974Z,96569.50
2022-12-14T10:21:20.469Z,96561.28
2022-12-14T10:23:50.082Z,96557.03
2022-12-14T10:26:19.092Z,96552.72
2022-12-14T10:28:45.489Z,96541.16
2022-12-14T10:31:14.189Z,96533.38
2022-12-14T10:33:44.822Z,96526.25
2022-12-14T10:36:28.700Z,96526.22
2022-12-14T10:38:59.536Z,96512.13
2022-12-14T10:41:25.966Z,96495.91
2022-12-14T10:43:52.374Z,96491.75
2022-12-14T10:46:37.746Z,96487.19
2022-12-14T10:49:16.453Z,96485.25
2022-12-14T10:51:54.921Z,96484.84
2022-12-14T10:54:21.340Z,96470.13
2022-12-14T10:56:50.077Z,96475.53
2022-12-14T10:59:23.625Z,96474.63
2022-12-14T11:01:53.731Z,96459.97
2022-12-14T11:04:23.373Z,96452.63
2022-12-14T11:06:49.808Z,96443.34
2022-12-14T11:09:20.796Z,96435.94
2022-12-14T11:11:47.341Z,96432.47
2022-12-14T11:14:17.586Z,96427.25
2022-12-14T11:16:44.148Z,96423.94
2022-12-14T11:19:28.963Z,96422.84
2022-12-14T11:22:21.733Z,96424.88
2022-12-14T11:24:48.916Z,96410.78
2022-12-14T11:27:18.333Z,96417.91
2022-12-14T11:29:47.157Z,96410.22
2022-12-14T11:32:22.797Z,96406.97
2022-12-14T11:34:57.330Z,96389.72
2022-12-14T11:37:26.235Z,96394.31
2022-12-14T11:39:54.300Z,96382.56
2022-12-14T11:42:21.587Z,96386.88
2022-12-14T11:44:48.860Z,96379.63
2022-12-14T11:47:16.716Z,96363.47
2022-12-14T11:49:47.860Z,96361.66
2022-12-14T11:52:18.195Z,96361.41
2022-12-14T11:54:50.139Z,96354.50
2022-12-14T11:57:16.882Z,96350.16
2022-12-14T11:59:52.343Z,96348.16
2022-12-14T12:02:22.072Z,96334.50
2022-12-14T12:04:57.190Z,96321.88
2022-12-14T12:07:26.075Z,96316.06
2022-12-14T12:09:52.926Z,96313.41
2022-12-14T12:12:20.435Z,96311.03
2022-12-14T12:14:50.445Z,96313.38
2022-12-14T12:17:17.491Z,96313.34
2022-12-14T12:19:45.041Z,96317.88
2022-12-14T12:22:11.942Z,96320.09
2022-12-14T12:25:08.389Z,96312.81
2022-12-14T12:27:29.428Z,96318.28
2022-12-14T12:30:02.265Z,96309.34
2022-12-14T12:32:37.355Z,96316.22
2022-12-14T12:35:11.389Z,96311.13
2022-12-14T12:37:44.878Z,96304.56
2022-12-14T12:40:19.693Z,96292.78
2022-12-14T12:42:49.993Z,96297.19
2022-12-14T12:45:19.271Z,96298.09
2022-12-14T12:48:08.728Z,96299.34
2022-12-14T12:50:36.751Z,96288.19
2022-12-14T12:53:06.205Z,96291.03
2022-12-14T12:55:40.579Z,96277.63
2022-12-14T12:58:09.994Z,96279.84
2022-12-14T13:00:38.181Z,96270.38
2022-12-14T13:03:10.795Z,96271.53
2022-12-14T13:05:48.206Z,96271.69
2022-12-14T13:08:23.940Z,96279.50
2022-12-14T13:13:41.562Z,96269.13
2022-12-14T13:16:08.136Z,96266.34
2022-12-14T13:18:59.642Z,96256.22
2022-12-14T13:21:36.073Z,96251.28
2022-12-14T13:24:03.475Z,96249.59
2022-12-14T13:27:01.325Z,96260.94
2022-12-14T13:29:30.814Z,96258.88
2022-12-14T13:32:12.528Z,96257.66
2022-12-14T13:34:38.949Z,96258.75
2022-12-14T13:37:15.334Z,96257.66
2022-12-14T13:39:41.729Z,96260.44
2022-12-14T13:42:16.277Z,96261.16
2022-12-14T13:44:55.939Z,96258.19
2022-12-14T13:47:33.705Z,96263.13
2022-12-14T13:50:35.012Z,96263.13
2022-12-14T13:52:54.179Z,96277.34
2022-12-14T13:55:30.259Z,96274.22
2022-12-14T13:58:14.276Z,96274.00
2022-12-14T14:00:49.548Z,96273.03
2022-12-14T14:03:34.698Z,96283.53
2022-12-14T14:06:08.728Z,96289.59
2022-12-14T14:08:41.650Z,96291.53
2022-12-14T14:11:39.552Z,96302.13
2022-12-14T14:14:11.936Z,96310.81
2022-12-14T14:16:47.139Z,96305.16
2022-12-14T14:19:36.433Z,96306.25
2022-12-14T14:22:25.574Z,96300.22
2022-12-14T14:24:59.235Z,96305.97
2022-12-14T14:27:35.288Z,96304.97
2022-12-14T14:30:03.125Z,96301.59
2022-12-14T14:32:37.772Z,96287.41
2022-12-14T14:35:09.187Z,96284.44
2022-12-14T14:37:36.571Z,96279.13
2022-12-14T14:40:18.700Z,96273.13
2022-12-14T14:42:55.643Z,96271.97
2022-12-14T14:45:35.522Z,96258.81
2022-12-14T14:48:08.169Z,96246.19
2022-12-14T14:50:39.558Z,96243.94
2022-12-14T14:53:18.426Z,96243.69
2022-12-14T14:55:54.277Z,96241.53
2022-12-14T14:58:23.973Z,96236.81
2022-12-14T15:00:52.650Z,96234.78
2022-12-14T15:03:34.850Z,96234.78
2022-12-14T15:06:01.448Z,96228.41
2022-12-14T15:08:31.261Z,96232.38
2022-12-14T15:10:58.606Z,96241.53
2022-12-14T15:13:27.293Z,96236.25
2022-12-14T15:15:56.482Z,96229.84
2022-12-14T15:18:24.511Z,96227.81
2022-12-14T15:21:07.814Z,96234.78
2022-12-14T15:23:39.426Z,96235.75
2022-12-14T15:26:16.214Z,96237.44
2022-12-14T15:28:46.100Z,96235.97
2022-12-14T15:31:13.494Z,96239.59
2022-12-14T15:33:42.032Z,96240.06
2022-12-14T15:36:12.364Z,96244.41
2022-12-14T15:38:38.865Z,96240.31
2022-12-14T15:41:12.720Z,96231.41
2022-12-14T15:43:42.932Z,96235.41
2022-12-14T15:46:20.089Z,96232.59
2022-12-14T15:48:46.643Z,96230.22
2022-12-14T15:51:15.281Z,96226.09
2022-12-14T15:53:50.438Z,96216.97
2022-12-14T15:56:21.825Z,96208.34
2022-12-14T15:58:48.914Z,96208.59
2022-12-14T16:01:32.886Z,96205.06
2022-12-14T16:04:01.588Z,96200.88
2022-12-14T16:06:29.536Z,96191.22
2022-12-14T16:09:02.013Z,96183.13
2022-12-14T16:11:33.782Z,96170.28
2022-12-14T16:14:03.214Z,96160.19
2022-12-14T16:16:29.795Z,96161.31
2022-12-14T16:19:13.852Z,96161.22
2022-12-14T16:21:46.419Z,96165.09
2022-12-14T16:24:23.850Z,96162.16
2022-12-14T16:26:58.007Z,96171.09
2022-12-14T16:29:29.471Z,96177.44
2022-12-14T16:32:00.231Z,96179.00
2022-12-14T16:34:27.515Z,96183.84
2022-12-14T16:37:23.229Z,96174.13
2022-12-14T16:39:47.235Z,96190.13
2022-12-14T16:42:19.237Z,96185.44
2022-12-14T16:44:46.035Z,96195.13
2022-12-14T16:47:12.455Z,96194.81
2022-12-14T16:49:42.480Z,96208.50
2022-12-14T16:52:16.632Z,96209.56
2022-12-14T16:54:43.569Z,96206.19
2022-12-14T16:57:13.116Z,96210.22
2022-12-14T16:59:41.161Z,96207.72
2022-12-14T17:02:26.394Z,96204.94
2022-12-14T17:04:53.141Z,96198.69
2022-12-14T17:07:22.658Z,96193.41
2022-12-14T17:09:49.313Z,96189.56
2022-12-14T17:12:16.366Z,96181.97
2022-12-14T17:14:49.510Z,96185.47
2022-12-14T17:17:19.878Z,96181.91
2022-12-14T17:19:46.361Z,96186.44
2022-12-14T17:22:16.065Z,96182.66
2022-12-14T17:24:42.538Z,96177.25
2022-12-14T17:27:11.594Z,96170.84
2022-12-14T17:29:38.036Z,96166.34
2022-12-14T17:32:04.500Z,96168.69
2022-12-14T17:34:31.081Z,96172.97
2022-12-14T17:36:57.666Z,96172.03
2022-12-14T17:39:24.822Z,96172.03
2022-12-14T17:41:51.366Z,96172.75
2022-12-14T17:44:19.661Z,96170.06
2022-12-14T17:46:48.672Z,96172.41
2022-12-14T17:49:15.951Z,96163.69
2022-12-14T17:51:45.138Z,96165.25
2022-12-14T17:54:16.411Z,96169.94
2022-12-14T17:56:43.828Z,96161.75
2022-12-14T17:59:10.281Z,96170.06
2022-12-14T18:01:37.099Z,96170.28
2022-12-14T18:04:03.864Z,96168.13
2022-12-14T18:06:30.429Z,96166.28
2022-12-14T18:08:56.859Z,96170.91
2022-12-14T18:11:24.583Z,96179.97
2022-12-14T18:13:51.198Z,96178.78
2022-12-14T18:16:19.251Z,96172.63
2022-12-14T18:18:46.158Z,96168.81
2022-12-14T18:21:18.205Z,96169.81
2022-12-14T18:23:44.944Z,96161.94
2022-12-14T18:26:12.952Z,96167.16
2022-12-14T18:28:42.588Z,96159.13
2022-12-14T18:31:15.379Z,96165.03
2022-12-14T18:33:43.602Z,96163.00
2022-12-14T18:36:11.588Z,96164.41
2022-12-14T18:38:38.083Z,96158.66
2022-12-14T18:41:05.046Z,96163.28
2022-12-14T18:43:32.435Z,96170.34
2022-12-14T18:46:00.183Z,96168.00
2022-12-14T18:48:26.754Z,96167.22
2022-12-14T18:50:53.862Z,96167.47
2022-12-14T18:53:22.245Z,96179.25
2022-12-14T18:55:49.089Z,96177.31
2022-12-14T18:58:21.642Z,96167.97
2022-12-14T19:00:51.253Z,96167.16
2022-12-14T19:03:18.098Z,96174.38
2022-12-14T19:05:44.796Z,96180.50
2022-12-14T19:08:11.553Z,96173.34
2022-12-14T19:10:39.408Z,96170.91
2022-12-14T19:13:05.993Z,96163.50
2022-12-14T19:15:34.085Z,96168.56
2022-12-14T19:18:00.608Z,96185.84
2022-12-14T19:20:27.949Z,96181.47
2022-12-14T19:22:54.495Z,96190.03
2022-12-14T19:25:22.005Z,96187.25
2022-12-14T19:30:36.270Z,96186.22
2022-12-14T19:33:02.805Z,96182.06
2022-12-14T19:35:29.320Z,96185.56
2022-12-14T19:37:55.769Z,96185.28
2022-12-14T19:40:22.342Z,96182.06
2022-12-14T19:42:48.903Z,96182.56
2022-12-14T19:45:15.571Z,96188.34
2022-12-14T19:47:44.006Z,96194.53
2022-12-14T19:50:11.324Z,96186.63
2022-12-14T19:52:37.816Z,96182.53
2022-12-14T19:55:04.448Z,96181.22
2022-12-14T19:57:30.969Z,96171.97
2022-12-14T19:59:59.832Z,96172.47
2022-12-14T20:02:26.522Z,96181.13
2022-12-14T20:04:53.074Z,96174.63
2022-12-14T20:07:19.625Z,96181.84
2022-12-14T20:09:46.111Z,96184.22
2022-12-14T20:12:12.636Z,96183.50
2022-12-14T20:14:40.033Z,96182.09
2022-12-14T20:17:07.502Z,96198.72
2022-12-14T20:19:34.937Z,96200.06
2022-12-14T20:22:01.605Z,96206.19
2022-12-14T20:24:28.139Z,96208.75
2022-12-14T20:26:54.712Z,96212.16
2022-12-14T20:29:21.355Z,96207.09
2022-12-14T20:31:48.323Z,96199.97
2022-12-14T20:34:14.885Z,96194.31
2022-12-14T20:36:41.398Z,96199.88
2022-12-14T20:39:07.919Z,96197.31
2022-12-14T20:41:34.507Z,96211.19
2022-12-14T20:44:02.257Z,96205.09
2022-12-14T20:46:33.234Z,96201.75
2022-12-14T20:49:03.518Z,96199.19
2022-12-14T20:51:31.014Z,96203.44
2022-12-14T20:53:57.582Z,96181.47
2022-12-14T20:56:24.357Z,96194.25
2022-12-14T20:58:51.055Z,96188.19
2022-12-14T21:01:18.414Z,96198.38
2022-12-14T21:03:47.008Z,96196.31
2022-12-14T21:06:18.070Z,96189.19
2022-12-14T21:09:05.661Z,96183.31
2022-12-14T21:11:51.341Z,96200.81
2022-12-14T21:14:18.521Z,96200.47
2022-12-14T21:16:45.050Z,96185.44
2022-12-14T21:19:13.200Z,96187.16
2022-12-14T21:21:40.360Z,96187.47
2022-12-14T21:24:10.897Z,96196.09
2022-12-14T21:26:37.915Z,96198.78
2022-12-14T21:29:05.668Z,96186.50
2022-12-14T21:31:32.592Z,96185.69
2022-12-14T21:33:59.124Z,96183.41
2022-12-14T21:36:25.585Z,96178.59
2022-12-14T21:38:53.732Z,96179.47
2022-12-14T21:41:38.420Z,96178.22
2022-12-14T21:44:05.272Z,96184.00
2022-12-14T21:46:31.820Z,96180.38
2022-12-14T21:48:59.135Z,96169.72
2022-12-14T21:51:25.844Z,96179.16
2022-12-14T21:53:59.320Z,96195.34
2022-12-14T21:56:54.587Z,96191.53
2022-12-14T21:59:25.443Z,96190.47
2022-12-14T22:01:52.597Z,96181.38
2022-12-14T22:04:19.709Z,96173.75
2022-12-14T22:06:46.206Z,96161.72
2022-12-14T22:09:12.986Z,96166.16
2022-12-14T22:11:39.460Z,96157.81
2022-12-14T22:14:05.928Z,96165.25
2022-12-14T22:16:33.211Z,96168.19
2022-12-14T22:19:00.404Z,96161.88
2022-12-14T22:21:27.369Z,96168.38
2022-12-14T22:23:54.476Z,96163.97
2022-12-14T22:26:20.986Z,96175.97
2022-12-14T22:28:53.644Z,96169.69
2022-12-14T22:31:20.782Z,96165.25
2022-12-14T22:33:49.559Z,96165.03
2022-12-14T22:36:16.769Z,96170.50
2022-12-14T22:38:43.595Z,96171.38
2022-12-14T22:41:12.596Z,96172.38
2022-12-14T22:43:39.443Z,96170.00
2022-12-14T22:46:06.341Z,96175.38
2022-12-14T22:48:33.555Z,96171.03
2022-12-14T22:51:00.993Z,96164.78
2022-12-14T22:53:28.740Z,96161.31
2022-12-14T22:55:57.734Z,96164.97
2022-12-14T22:58:24.756Z,96164.66
2022-12-14T23:00:53.956Z,96183.41
2022-12-14T23:03:23.030Z,96176.53
2022-12-14T23:05:49.925Z,96172.50
2022-12-14T23:08:16.516Z,96166.88
2022-12-14T23:11:01.722Z,96176.59
2022-12-14T23:13:46.873Z,96186.34
2022-12-14T23:16:32.139Z,96177.59
2022-12-14T23:19:17.369Z,96169.25
2022-12-14T23:22:02.338Z,96174.53
2022-12-14T23:24:47.613Z,96181.28
2022-12-14T23:27:32.725Z,96184.47
2022-12-14T23:30:18.115Z,96179.06
2022-12-14T23:33:03.321Z,96178.00
2022-12-14T23:35:48.577Z,96179.78
2022-12-14T23:38:33.765Z,96188.00
2022-12-14T23:41:19.796Z,96182.88
2022-12-14T23:44:04.698Z,96185.44
2022-12-14T23:46:50.032Z,96179.09
2022-12-14T23:49:35.371Z,96175.16
2022-12-14T23:52:20.336Z,96188.84
2022-12-14T23:55:05.242Z,96194.19
2022-12-14T23:57:50.314Z,96205.06
